Time;durP1;ratioP1;P1;durP2;ratioP2;P2;SDS_P1;SDS_P2;PMS_P1;PMS_P2;Temp;Humidity;BMP_temperature;BMP_pressure;BME280_temperature;BME280_humidity;BME280_pressure;Samples;Min_cycle;Max_cycle;Signal;HPM_P1;HPM_P2
2020/12/23 18:30:23;;;;;;;13.50;3.70;;;12.50;67.00;;;;;;5101754;27;20448;-48
2020/12/23 18:32:49;;;;;;;10.70;3.30;;;12.20;66.70;;;;;;5071008;28;20090;-48
2020/12/23 18:35:16;;;;;;;10.32;3.17;;;12.40;66.70;;;;;;5071291;28;20033;-49
2020/12/23 18:37:42;;;;;;;11.73;3.03;;;12.50;66.50;;;;;;5069764;28;20453;-49
2020/12/23 18:40:09;;;;;;;9.20;3.63;;;12.70;66.10;;;;;;5070893;28;20021;-49
2020/12/23 18:42:35;;;;;;;19.30;3.72;;;12.90;65.60;;;;;;5069408;28;20112;-50
2020/12/23 18:45:02;;;;;;;21.20;3.55;;;13.10;65.10;;;;;;5069818;28;20036;-49
2020/12/23 18:47:29;;;;;;;12.70;3.38;;;13.30;64.80;;;;;;5070137;28;20495;-49
2020/12/23 18:49:55;;;;;;;19.70;3.50;;;13.50;64.20;;;;;;5069400;28;20043;-49
2020/12/23 18:52:22;;;;;;;12.85;3.65;;;13.60;63.70;;;;;;5070725;28;20033;-49
2020/12/23 18:54:48;;;;;;;10.05;3.30;;;13.80;63.10;;;;;;5071070;28;20024;-49
2020/12/23 18:57:15;;;;;;;14.82;3.30;;;13.90;62.60;;;;;;5070689;28;20029;-49
2020/12/23 18:59:42;;;;;;;13.52;3.10;;;14.00;62.20;;;;;;5070969;28;20025;-49
2020/12/23 19:02:09;;;;;;;9.85;2.78;;;14.20;61.90;;;;;;5070561;28;20039;-49
2020/12/23 19:04:35;;;;;;;13.90;3.15;;;14.40;61.40;;;;;;5070645;28;20029;-49
2020/12/23 19:07:02;;;;;;;13.35;2.80;;;14.50;61.00;;;;;;5069910;28;20021;-49
2020/12/23 19:09:28;;;;;;;10.15;2.90;;;14.70;60.70;;;;;;5070436;28;20029;-49
2020/12/23 19:11:55;;;;;;;18.08;3.13;;;14.80;60.30;;;;;;5086017;28;20029;-49
2020/12/23 19:14:21;;;;;;;10.18;2.63;;;14.90;59.80;;;;;;5070697;28;20108;-49
2020/12/23 19:16:48;;;;;;;16.67;2.78;;;15.10;59.60;;;;;;5070534;28;20041;-49
2020/12/23 19:19:14;;;;;;;5.07;2.38;;;15.20;59.20;;;;;;5070252;28;20074;-49
2020/12/23 19:21:44;;;;;;;18.45;3.20;;;15.30;58.70;;;;;;5070170;28;20032;-49
2020/12/23 19:24:12;;;;;;;9.68;2.47;;;15.40;58.40;;;;;;5070169;28;20036;-49
2020/12/23 19:26:42;;;;;;;7.80;2.72;;;15.60;58.10;;;;;;5070067;28;20025;-49
2020/12/23 19:29:09;;;;;;;9.15;2.50;;;15.70;57.80;;;;;;5070377;28;20051;-49
2020/12/23 19:31:36;;;;;;;10.73;2.70;;;15.80;57.50;;;;;;5070642;28;20444;-49
2020/12/23 19:34:06;;;;;;;9.55;2.33;;;15.90;57.20;;;;;;5070138;28;20031;-49
2020/12/23 19:36:32;;;;;;;9.32;2.63;;;16.00;56.90;;;;;;5069675;28;20104;-49
2020/12/23 19:38:59;;;;;;;5.38;2.13;;;16.10;56.70;;;;;;5069865;28;20021;-49
2020/12/23 19:41:27;;;;;;;7.00;2.53;;;16.20;56.50;;;;;;5058275;28;20452;-49
2020/12/23 19:43:53;;;;;;;5.80;2.08;;;16.20;56.10;;;;;;5056305;28;20059;-49
2020/12/23 19:46:20;;;;;;;6.47;2.42;;;16.30;55.90;;;;;;5056503;28;20021;-49
2020/12/23 19:48:46;;;;;;;6.40;2.20;;;16.40;55.80;;;;;;5056448;28;20025;-49
2020/12/23 19:51:16;;;;;;;5.28;1.98;;;16.50;55.60;;;;;;5056498;28;20100;-49
2020/12/23 19:53:42;;;;;;;5.25;2.15;;;16.50;55.30;;;;;;5056445;28;20025;-49
2020/12/23 19:56:13;;;;;;;5.05;2.22;;;16.60;55.20;;;;;;5056460;28;20032;-49
2020/12/23 19:58:44;;;;;;;7.03;2.10;;;16.60;54.90;;;;;;5056509;28;20033;-49
2020/12/23 20:01:12;;;;;;;7.30;2.25;;;16.70;54.70;;;;;;5056047;28;20374;-49
2020/12/23 20:03:39;;;;;;;4.43;2.05;;;16.80;54.60;;;;;;5056269;28;20083;-49
2020/12/23 20:06:07;;;;;;;6.50;1.95;;;16.80;54.40;;;;;;5056102;28;20061;-49
2020/12/23 20:08:34;;;;;;;6.78;1.92;;;16.90;54.30;;;;;;5056703;28;20036;-49
2020/12/23 20:11:01;;;;;;;7.85;2.00;;;16.90;54.20;;;;;;5055891;28;20037;-49
2020/12/23 20:13:27;;;;;;;3.80;1.98;;;16.90;54.10;;;;;;5056059;28;20029;-49
2020/12/23 20:15:54;;;;;;;5.75;1.88;;;17.00;54.00;;;;;;5055936;28;20038;-49
2020/12/23 20:18:20;;;;;;;5.22;2.08;;;17.10;54.00;;;;;;5055939;28;20025;-49
2020/12/23 20:20:46;;;;;;;5.07;1.83;;;17.10;53.80;;;;;;5055928;28;20108;-49
2020/12/23 20:23:13;;;;;;;4.45;1.77;;;17.10;53.70;;;;;;5055887;28;20491;-49
2020/12/23 20:25:39;;;;;;;5.20;1.60;;;17.20;53.70;;;;;;5055847;28;20027;-49
2020/12/23 20:28:06;;;;;;;8.60;2.00;;;17.20;53.60;;;;;;5055340;28;20025;-49
2020/12/23 20:30:34;;;;;;;3.85;1.60;;;17.30;53.50;;;;;;5056520;28;20099;-49
2020/12/23 20:33:00;;;;;;;4.90;1.70;;;17.30;53.50;;;;;;5055606;28;20040;-49
2020/12/23 20:35:27;;;;;;;4.43;1.85;;;17.30;53.30;;;;;;5055649;28;20158;-49
2020/12/23 20:37:54;;;;;;;3.13;1.58;;;17.40;53.20;;;;;;5055609;28;20047;-49
2020/12/23 20:40:21;;;;;;;5.43;1.90;;;17.40;53.10;;;;;;5055014;28;20045;-49
2020/12/23 20:42:47;;;;;;;9.60;2.53;;;17.50;53.00;;;;;;5055341;28;20036;-49
2020/12/23 20:45:14;;;;;;;4.22;2.13;;;17.50;53.00;;;;;;5055441;28;20035;-49
2020/12/23 20:47:41;;;;;;;13.10;2.30;;;17.50;52.80;;;;;;5055034;28;20480;-49
2020/12/23 20:50:09;;;;;;;9.70;2.83;;;17.60;52.70;;;;;;5054906;28;20104;-49
2020/12/23 20:52:35;;;;;;;6.78;2.90;;;17.60;52.60;;;;;;5053124;28;20108;-49
2020/12/23 20:55:02;;;;;;;16.25;4.15;;;17.60;52.50;;;;;;5054772;28;20033;-49
2020/12/23 20:57:29;;;;;;;8.57;3.20;;;17.60;52.50;;;;;;5072568;28;20483;-49
2020/12/23 20:59:56;;;;;;;10.45;3.55;;;17.60;52.50;;;;;;5054139;28;20033;-49
2020/12/23 21:02:22;;;;;;;8.75;3.60;;;17.70;52.50;;;;;;5054730;28;20431;-49
2020/12/23 21:04:49;;;;;;;8.13;3.40;;;17.70;52.60;;;;;;5054720;28;20017;-49
2020/12/23 21:07:18;;;;;;;12.98;3.92;;;17.70;52.60;;;;;;5054997;28;20480;-49
2020/12/23 21:09:45;;;;;;;10.65;3.47;;;17.80;52.70;;;;;;5054947;28;20074;-49
2020/12/23 21:12:11;;;;;;;7.80;3.58;;;17.80;52.70;;;;;;5054950;28;20039;-49
2020/12/23 21:14:38;;;;;;;12.18;4.20;;;17.80;52.70;;;;;;5054479;28;20071;-49
2020/12/23 21:17:04;;;;;;;10.85;3.72;;;17.90;52.80;;;;;;5054801;28;20025;-49
2020/12/23 21:19:31;;;;;;;10.98;3.03;;;17.90;52.90;;;;;;5054681;28;20025;-49
2020/12/23 21:21:57;;;;;;;11.15;3.53;;;18.00;52.90;;;;;;5054556;28;20037;-49
2020/12/23 21:24:24;;;;;;;9.02;3.75;;;18.00;52.90;;;;;;5054280;28;20031;-48
2020/12/23 21:26:52;;;;;;;10.27;3.10;;;18.10;52.90;;;;;;5053890;28;20100;-48
2020/12/23 21:29:18;;;;;;;9.57;2.85;;;18.10;52.80;;;;;;5053700;28;20048;-49
2020/12/23 21:31:45;;;;;;;8.63;3.28;;;18.20;52.70;;;;;;5053962;28;20055;-48
2020/12/23 21:34:12;;;;;;;14.00;3.42;;;18.40;52.80;;;;;;5054451;28;20482;-49
2020/12/23 21:36:43;;;;;;;7.78;3.03;;;18.40;52.70;;;;;;5054524;28;20028;-49
2020/12/23 21:39:09;;;;;;;9.50;2.83;;;18.50;52.50;;;;;;5053853;28;20029;-49
2020/12/23 21:41:36;;;;;;;8.38;2.83;;;18.60;52.40;;;;;;5054448;28;20025;-48
2020/12/23 21:44:05;;;;;;;10.00;3.15;;;18.60;52.20;;;;;;5054048;28;20472;-49
2020/12/23 21:46:32;;;;;;;10.93;3.33;;;18.70;52.00;;;;;;5054308;28;20075;-49
2020/12/23 21:48:58;;;;;;;5.32;2.88;;;18.80;52.00;;;;;;5054048;28;20044;-49
2020/12/23 21:51:27;;;;;;;9.48;3.08;;;18.80;51.80;;;;;;5053975;28;20021;-49
2020/12/23 21:53:54;;;;;;;12.10;2.47;;;18.90;51.70;;;;;;5053974;28;20040;-48
2020/12/23 21:56:21;;;;;;;7.93;2.70;;;19.00;51.60;;;;;;5053878;28;20025;-49
2020/12/23 21:58:49;;;;;;;7.45;2.92;;;19.00;51.50;;;;;;5053458;28;20047;-49
2020/12/23 22:01:26;;;;;;;11.95;4.28;;;19.10;51.30;;;;;;5054045;28;20036;-48
2020/12/23 22:03:53;;;;;;;10.35;3.22;;;19.10;51.30;;;;;;5053546;28;20029;-49
2020/12/23 22:06:20;;;;;;;9.15;3.17;;;19.10;51.20;;;;;;5053063;28;20396;-49
2020/12/23 22:08:47;;;;;;;9.73;3.13;;;19.20;51.20;;;;;;5053396;28;20110;-49
2020/12/23 22:11:27;;;;;;;10.75;3.58;;;19.20;51.10;;;;;;5053369;28;20029;-49
2020/12/23 22:13:56;;;;;;;9.10;3.30;;;19.30;51.00;;;;;;5053996;28;20182;-49
2020/12/23 22:16:24;;;;;;;10.13;3.60;;;19.30;51.00;;;;;;5052557;28;20478;-49
2020/12/23 22:18:51;;;;;;;8.25;3.47;;;19.30;50.90;;;;;;5053506;28;20033;-49
2020/12/23 22:21:18;;;;;;;16.55;4.25;;;19.40;50.90;;;;;;5053431;28;20034;-47
2020/12/23 22:23:45;;;;;;;10.73;3.67;;;19.50;50.90;;;;;;5053528;28;20404;-47
2020/12/23 22:26:14;;;;;;;10.20;3.58;;;19.50;50.80;;;;;;5053602;28;20025;-47
2020/12/23 22:28:41;;;;;;;12.25;3.72;;;19.60;50.80;;;;;;5053661;28;20044;-47
2020/12/23 22:31:07;;;;;;;9.27;3.38;;;19.60;50.70;;;;;;5053414;28;20056;-47
2020/12/23 22:33:36;;;;;;;9.35;3.42;;;19.70;50.70;;;;;;5053522;28;20041;-47
2020/12/23 22:36:05;;;;;;;48.70;28.38;;;19.70;50.60;;;;;;5053600;28;20079;-47
2020/12/23 22:38:32;;;;;;;11.13;6.15;;;19.80;50.60;;;;;;5053866;28;20025;-47
2020/12/23 22:40:58;;;;;;;18.20;4.85;;;19.80;50.50;;;;;;5053276;28;20047;-47
2020/12/23 22:43:25;;;;;;;15.35;4.88;;;19.80;50.50;;;;;;5053360;28;20064;-47
2020/12/23 22:45:52;;;;;;;16.27;5.20;;;19.90;50.40;;;;;;5053123;28;20060;-47
2020/12/23 22:48:18;;;;;;;11.45;4.43;;;19.90;50.20;;;;;;5053315;28;20029;-48
2020/12/23 22:50:45;;;;;;;14.05;4.90;;;19.90;50.20;;;;;;5052948;28;20033;-48
2020/12/23 22:53:12;;;;;;;12.35;4.80;;;19.90;50.20;;;;;;5053513;28;20036;-48
2020/12/23 22:55:39;;;;;;;14.68;4.38;;;19.90;50.20;;;;;;5053155;28;20029;-47
2020/12/23 22:58:06;;;;;;;20.00;4.90;;;19.90;50.20;;;;;;5052284;28;20029;-47
2020/12/23 23:00:32;;;;;;;13.32;4.57;;;19.90;50.10;;;;;;5053264;28;20481;-47
2020/12/23 23:02:59;;;;;;;11.68;4.72;;;19.90;50.20;;;;;;5052832;28;20037;-47
2020/12/23 23:05:25;;;;;;;11.50;4.55;;;19.90;50.20;;;;;;5053159;28;20063;-48
2020/12/23 23:07:52;;;;;;;11.98;4.22;;;20.00;50.30;;;;;;5053672;28;20048;-47
2020/12/23 23:10:19;;;;;;;8.60;4.18;;;20.00;50.30;;;;;;5053320;28;20114;-48
2020/12/23 23:12:46;;;;;;;12.25;4.32;;;20.10;50.40;;;;;;5053284;28;20146;-48
2020/12/23 23:15:12;;;;;;;8.32;3.80;;;20.10;50.40;;;;;;5054243;28;20029;-47
2020/12/23 23:17:40;;;;;;;9.57;3.88;;;20.20;50.40;;;;;;5057121;28;20029;-47
2020/12/23 23:20:14;;;;;;;6.40;3.92;;;20.30;50.30;;;;;;5056814;28;20033;-48
2020/12/23 23:22:41;;;;;;;6.68;3.90;;;20.40;50.30;;;;;;5057303;28;20452;-47
2020/12/23 23:25:08;;;;;;;9.82;4.20;;;20.50;50.20;;;;;;5057769;28;20021;-47
2020/12/23 23:27:36;;;;;;;14.38;4.40;;;20.50;50.10;;;;;;5056845;28;20029;-48
2020/12/23 23:30:14;;;;;;;8.57;3.90;;;20.70;50.00;;;;;;5056896;28;20049;-48
2020/12/23 23:32:41;;;;;;;9.35;3.95;;;20.80;49.80;;;;;;5057394;28;20029;-48
2020/12/23 23:35:08;;;;;;;9.00;3.80;;;20.90;49.80;;;;;;5056752;28;20057;-48
2020/12/23 23:37:36;;;;;;;7.95;3.88;;;21.00;49.50;;;;;;5056364;28;20033;-47
2020/12/23 23:40:04;;;;;;;9.90;4.00;;;21.20;49.40;;;;;;5056630;28;20116;-48
2020/12/23 23:42:31;;;;;;;6.70;3.67;;;21.30;49.20;;;;;;5056160;28;20029;-47
2020/12/23 23:44:57;;;;;;;7.35;3.72;;;21.40;49.10;;;;;;5056806;28;20044;-48
2020/12/23 23:47:24;;;;;;;12.05;3.70;;;21.50;49.00;;;;;;5056840;28;20032;-48
2020/12/23 23:49:51;;;;;;;6.72;3.88;;;21.60;48.80;;;;;;5056817;28;20495;-48
2020/12/23 23:52:17;;;;;;;7.65;3.90;;;21.80;48.60;;;;;;5056318;28;20029;-48
2020/12/23 23:54:44;;;;;;;6.97;3.30;;;21.90;48.50;;;;;;5056138;28;20076;-48
2020/12/23 23:57:10;;;;;;;6.75;3.05;;;22.00;48.40;;;;;;5056396;28;20046;-48
2020/12/23 23:59:37;;;;;;;6.40;3.78;;;22.10;48.30;;;;;;5055992;28;20033;-48
